Time;durP1;ratioP1;P1;durP2;ratioP2;P2;SDS_P1;SDS_P2;PMS_P1;PMS_P2;Temp;Humidity;BMP_temperature;BMP_pressure;BME280_temperature;BME280_humidity;BME280_pressure;Samples;Min_cycle;Max_cycle;Signal;HPM_P1;HPM_P2
2024/01/08 00:00:38;;;;;;;21.73;13.98;;;;;;;15.07;46.77;103270.59;4946551;28;20395;-34
2024/01/08 00:03:05;;;;;;;21.35;14.45;;;;;;;15.02;46.63;103267.28;4948459;28;20062;-34
2024/01/08 00:05:31;;;;;;;20.48;13.95;;;;;;;15.10;47.09;103257.09;4946330;28;20065;-33
2024/01/08 00:07:58;;;;;;;19.40;13.35;;;;;;;15.21;46.43;103253.91;4944203;29;20046;-33
2024/01/08 00:10:25;;;;;;;21.85;13.45;;;;;;;15.31;46.33;103256.03;4943309;29;20339;-33
2024/01/08 00:12:51;;;;;;;19.52;13.65;;;;;;;15.38;45.54;103255.72;4946242;28;20137;-33
2024/01/08 00:15:18;;;;;;;20.05;13.10;;;;;;;15.46;45.40;103250.84;4947646;28;20055;-34
2024/01/08 00:17:44;;;;;;;19.88;12.52;;;;;;;15.52;45.63;103261.25;4947105;29;20076;-33
2024/01/08 00:20:11;;;;;;;17.95;12.55;;;;;;;15.60;45.98;103263.50;4945039;29;20055;-33
2024/01/08 00:22:38;;;;;;;18.33;12.75;;;;;;;15.66;45.07;103263.25;4947750;29;20051;-34
2024/01/08 00:25:05;;;;;;;19.38;12.43;;;;;;;15.72;45.02;103266.47;4944675;28;20122;-34
2024/01/08 00:27:32;;;;;;;16.67;11.73;;;;;;;15.76;44.80;103259.16;4943229;28;20146;-34
2024/01/08 00:29:59;;;;;;;17.63;11.77;;;;;;;15.82;45.12;103250.81;4944358;28;20051;-34
2024/01/08 00:32:26;;;;;;;18.45;12.63;;;;;;;15.85;45.12;103255.13;4944662;29;20063;-33
2024/01/08 00:34:52;;;;;;;16.75;10.95;;;;;;;15.87;44.23;103261.25;4949377;29;20051;-35
2024/01/08 00:37:19;;;;;;;16.33;10.95;;;;;;;15.90;44.35;103259.28;4947066;29;20043;-34
2024/01/08 00:39:46;;;;;;;16.35;10.88;;;;;;;15.94;44.54;103260.00;4941730;28;20134;-34
2024/01/08 00:42:12;;;;;;;15.05;10.70;;;;;;;15.99;44.80;103252.59;4945697;29;20083;-35
2024/01/08 00:44:39;;;;;;;14.73;10.10;;;;;;;16.02;44.98;103260.47;4944399;29;20062;-34
2024/01/08 00:47:05;;;;;;;15.80;10.45;;;;;;;16.06;45.21;103259.34;4947215;28;20047;-34
2024/01/08 00:49:32;;;;;;;14.05;9.93;;;;;;;16.07;44.92;103258.38;4944923;29;20733;-33
2024/01/08 00:51:59;;;;;;;12.23;8.93;;;;;;;16.06;44.03;103251.31;4943099;29;20061;-33
2024/01/08 00:54:25;;;;;;;14.57;9.77;;;;;;;16.01;44.51;103251.56;4942168;28;20047;-33
2024/01/08 00:56:52;;;;;;;13.85;9.52;;;;;;;15.95;44.29;103253.69;4945233;29;20046;-33
2024/01/08 00:59:18;;;;;;;13.90;9.63;;;;;;;15.90;43.54;103253.06;4947503;29;20067;-32
2024/01/08 01:01:45;;;;;;;12.73;8.77;;;;;;;15.83;44.10;103255.19;4947342;29;20058;-34
2024/01/08 01:04:12;;;;;;;12.32;8.40;;;;;;;15.76;44.82;103261.84;4946186;29;20047;-34
2024/01/08 01:06:38;;;;;;;13.15;8.57;;;;;;;15.70;44.73;103264.81;4945852;29;20058;-33
2024/01/08 01:09:05;;;;;;;13.48;8.50;;;;;;;15.62;43.98;103262.50;4944230;29;20407;-33
2024/01/08 01:11:32;;;;;;;12.90;8.77;;;;;;;15.63;44.49;103272.25;4946494;28;20055;-35
2024/01/08 01:13:58;;;;;;;10.95;8.30;;;;;;;15.63;45.03;103266.03;4947068;28;20102;-33
2024/01/08 01:16:29;;;;;;;12.93;8.60;;;;;;;15.66;45.17;103280.13;4946436;29;20439;-33
2024/01/08 01:18:57;;;;;;;11.55;8.02;;;;;;;15.73;45.03;103278.88;4942960;29;20199;-33
2024/01/08 01:21:24;;;;;;;11.65;8.07;;;;;;;15.79;44.18;103275.03;4943887;28;20053;-33
2024/01/08 01:23:51;;;;;;;11.02;8.02;;;;;;;15.84;43.83;103274.78;4940541;29;20143;-34
2024/01/08 01:26:18;;;;;;;12.23;8.70;;;;;;;15.91;43.90;103281.53;4942538;29;20055;-33
2024/01/08 01:28:44;;;;;;;10.90;7.63;;;;;;;15.93;44.94;103277.84;4943438;29;20051;-35
2024/01/08 01:31:12;;;;;;;12.32;8.45;;;;;;;15.96;44.07;103285.72;4945818;28;20415;-34
2024/01/08 01:33:39;;;;;;;11.55;7.88;;;;;;;15.99;44.40;103282.00;4948508;28;20434;-33
2024/01/08 01:36:06;;;;;;;9.93;7.15;;;;;;;16.01;43.80;103285.47;4946129;28;20325;-32
2024/01/08 01:38:33;;;;;;;10.50;7.07;;;;;;;16.04;44.86;103280.84;4948167;28;20052;-33
2024/01/08 01:40:59;;;;;;;10.93;7.80;;;;;;;16.08;44.77;103292.25;4948921;29;20145;-34
2024/01/08 01:43:31;;;;;;;9.48;6.85;;;;;;;16.10;44.04;103290.34;4949100;28;20063;-33
2024/01/08 01:46:04;;;;;;;9.05;6.80;;;;;;;16.09;43.68;103298.47;4947431;29;20458;-33
2024/01/08 01:48:30;;;;;;;10.25;7.28;;;;;;;16.02;44.10;103295.22;4948457;29;20050;-33
2024/01/08 01:50:57;;;;;;;9.75;6.40;;;;;;;15.92;44.14;103302.88;4946196;28;20055;-34
2024/01/08 01:53:24;;;;;;;11.30;6.60;;;;;;;15.84;43.48;103304.19;4946637;28;20332;-33
2024/01/08 01:55:53;;;;;;;9.43;6.38;;;;;;;15.76;43.78;103300.13;4948405;28;20052;-34
2024/01/08 01:58:21;;;;;;;9.32;6.40;;;;;;;15.67;44.54;103302.38;4947569;29;20079;-34
2024/01/08 02:00:48;;;;;;;8.68;6.20;;;;;;;15.59;45.06;103293.88;4947650;28;20436;-33
2024/01/08 02:03:15;;;;;;;8.45;5.60;;;;;;;15.51;45.18;103300.44;4945859;29;20463;-33
2024/01/08 02:05:42;;;;;;;8.52;6.05;;;;;;;15.42;44.59;103303.59;4944015;29;20043;-33
2024/01/08 02:08:10;;;;;;;8.48;6.07;;;;;;;15.34;44.64;103303.09;4948062;29;20039;-33
2024/01/08 02:10:42;;;;;;;9.10;6.35;;;;;;;15.25;44.79;103306.25;4949213;29;20069;-32
2024/01/08 02:13:09;;;;;;;8.38;5.75;;;;;;;15.19;44.91;103303.84;4949579;29;20047;-34
2024/01/08 02:15:35;;;;;;;8.52;5.93;;;;;;;15.11;45.83;103303.38;4947069;28;20097;-32
2024/01/08 02:18:02;;;;;;;7.20;5.53;;;;;;;15.08;45.45;103306.22;4948137;28;20052;-32
2024/01/08 02:20:28;;;;;;;7.97;5.85;;;;;;;15.12;46.23;103305.13;4948777;29;20133;-33
2024/01/08 02:22:58;;;;;;;7.90;5.80;;;;;;;15.20;45.52;103309.16;4948054;29;20051;-33
2024/01/08 02:25:26;;;;;;;8.38;5.93;;;;;;;15.25;46.26;103304.44;4947273;29;20078;-32
2024/01/08 02:27:52;;;;;;;8.40;5.63;;;;;;;15.35;46.11;103296.81;4946752;29;20423;-33
2024/01/08 02:30:19;;;;;;;7.70;5.45;;;;;;;15.44;45.33;103299.06;4945132;28;20444;-34
2024/01/08 02:32:46;;;;;;;7.93;5.30;;;;;;;15.54;45.63;103296.78;4947892;29;20054;-32
2024/01/08 02:35:12;;;;;;;7.95;5.22;;;;;;;15.64;45.79;103300.72;4947098;29;20066;-33
2024/01/08 02:37:39;;;;;;;6.28;4.57;;;;;;;15.74;44.41;103304.69;4943769;29;20059;-32
2024/01/08 02:40:06;;;;;;;9.10;5.30;;;;;;;15.84;44.63;103312.22;4946606;28;20111;-33
2024/01/08 02:42:33;;;;;;;7.90;5.30;;;;;;;15.86;45.13;103307.66;4948156;28;20091;-34
2024/01/08 02:45:00;;;;;;;7.00;4.68;;;;;;;15.87;45.06;103310.25;4946539;28;20090;-33
2024/01/08 02:47:27;;;;;;;7.35;5.18;;;;;;;15.86;44.52;103308.53;4947169;28;20373;-33
2024/01/08 02:49:54;;;;;;;7.60;5.22;;;;;;;15.90;44.38;103315.44;4945193;28;20435;-33
2024/01/08 02:52:20;;;;;;;6.70;4.90;;;;;;;15.92;45.10;103312.69;4944300;29;20135;-33
2024/01/08 02:54:47;;;;;;;7.13;5.00;;;;;;;15.94;44.48;103311.69;4948563;29;20055;-32
2024/01/08 02:57:13;;;;;;;6.20;4.60;;;;;;;15.92;43.99;103315.34;4947396;28;20043;-33
2024/01/08 02:59:40;;;;;;;6.18;4.30;;;;;;;15.85;44.79;103314.84;4943477;29;20055;-33
2024/01/08 03:02:06;;;;;;;7.28;4.95;;;;;;;15.77;45.02;103312.56;4945349;29;20395;-33
2024/01/08 03:04:33;;;;;;;6.43;4.53;;;;;;;15.71;44.18;103315.53;4945628;29;20059;-33
2024/01/08 03:07:01;;;;;;;8.18;4.97;;;;;;;15.64;44.54;103311.41;4941385;29;20086;-33
2024/01/08 03:09:28;;;;;;;6.78;4.25;;;;;;;15.57;44.96;103322.50;4936990;28;20059;-32
2024/01/08 03:11:55;;;;;;;6.10;4.40;;;;;;;15.48;44.67;103324.69;4946904;29;20378;-32
2024/01/08 03:14:22;;;;;;;6.38;4.30;;;;;;;15.40;45.33;103321.53;4948319;29;20055;-32
2024/01/08 03:16:48;;;;;;;6.32;4.18;;;;;;;15.32;44.55;103331.72;4946606;29;20054;-33
2024/01/08 03:19:15;;;;;;;5.45;3.85;;;;;;;15.31;44.98;103321.97;4948269;28;20063;-33
2024/01/08 03:21:41;;;;;;;5.25;3.85;;;;;;;15.35;45.63;103325.34;4947896;28;20443;-32
2024/01/08 03:24:08;;;;;;;5.65;3.88;;;;;;;15.38;44.82;103327.88;4948730;29;20138;-32
2024/01/08 03:26:35;;;;;;;6.25;4.32;;;;;;;15.45;45.13;103329.31;4947076;28;20051;-32
2024/01/08 03:29:01;;;;;;;5.07;3.85;;;;;;;15.54;44.41;103332.38;4947356;28;20087;-33
2024/01/08 03:31:28;;;;;;;5.95;3.97;;;;;;;15.67;45.23;103329.13;4947295;29;20074;-33
2024/01/08 03:33:55;;;;;;;5.22;3.58;;;;;;;15.78;44.87;103335.66;4947466;29;20149;-33
2024/01/08 03:36:22;;;;;;;4.60;3.40;;;;;;;15.89;44.33;103329.78;4946493;29;20364;-34
2024/01/08 03:38:49;;;;;;;5.43;3.88;;;;;;;15.99;43.83;103333.69;4947846;29;20135;-34
2024/01/08 03:41:15;;;;;;;5.05;3.78;;;;;;;16.06;44.33;103334.25;4948223;29;20057;-32
2024/01/08 03:43:43;;;;;;;5.45;3.60;;;;;;;16.10;44.71;103340.31;4946601;28;20115;-33
2024/01/08 03:46:10;;;;;;;5.25;3.58;;;;;;;16.09;43.71;103335.91;4948318;29;20146;-33
2024/01/08 03:48:37;;;;;;;4.72;3.67;;;;;;;16.07;44.33;103337.78;4948180;28;20346;-33
2024/01/08 03:51:03;;;;;;;4.68;3.58;;;;;;;16.03;44.53;103343.28;4945596;29;20404;-34
2024/01/08 03:53:30;;;;;;;4.47;3.25;;;;;;;16.02;44.59;103335.34;4946643;28;20343;-36
2024/01/08 03:55:57;;;;;;;5.43;3.45;;;;;;;16.03;44.43;103342.44;4945791;29;20075;-33
2024/01/08 03:58:25;;;;;;;4.85;3.50;;;;;;;16.05;44.48;103335.19;4946290;28;20047;-32
2024/01/08 04:00:53;;;;;;;4.20;3.00;;;;;;;16.03;43.54;103339.75;4947868;29;20153;-34
2024/01/08 04:03:20;;;;;;;4.30;3.42;;;;;;;15.98;43.65;103336.47;4945562;29;20464;-33
2024/01/08 04:05:47;;;;;;;4.30;3.28;;;;;;;15.90;44.05;103330.63;4945310;28;20530;-34
2024/01/08 04:08:14;;;;;;;4.35;3.38;;;;;;;15.82;44.79;103333.69;4946866;28;20047;-33
2024/01/08 04:10:41;;;;;;;5.35;3.78;;;;;;;15.75;44.01;103333.13;4945454;28;20048;-33
2024/01/08 04:13:08;;;;;;;4.38;3.35;;;;;;;15.68;43.82;103330.88;4946258;28;20078;-33
2024/01/08 04:15:35;;;;;;;4.90;3.17;;;;;;;15.61;44.75;103329.41;4945823;29;20080;-32
2024/01/08 04:18:01;;;;;;;3.80;2.75;;;;;;;15.51;44.80;103329.84;4944323;29;20051;-33
2024/01/08 04:20:28;;;;;;;4.63;3.25;;;;;;;15.44;45.17;103325.78;4945239;29;20430;-33
2024/01/08 04:22:55;;;;;;;4.43;3.30;;;;;;;15.37;45.50;103329.69;4946201;29;20055;-32
2024/01/08 04:25:21;;;;;;;5.00;2.88;;;;;;;15.28;45.40;103333.69;4946742;28;20074;-34
2024/01/08 04:27:48;;;;;;;5.05;3.30;;;;;;;15.22;45.69;103338.44;4948830;29;20061;-33
2024/01/08 04:30:15;;;;;;;3.88;2.70;;;;;;;15.14;44.88;103338.81;4942983;28;20094;-33
2024/01/08 04:32:42;;;;;;;3.30;2.78;;;;;;;15.08;45.59;103330.25;4944176;28;20054;-34
2024/01/08 04:35:08;;;;;;;3.78;2.95;;;;;;;15.11;45.58;103344.28;4944478;29;20055;-33
2024/01/08 04:37:35;;;;;;;3.85;2.70;;;;;;;15.16;45.43;103339.63;4946456;29;20055;-34
2024/01/08 04:40:03;;;;;;;4.05;2.75;;;;;;;15.23;45.37;103337.50;4945854;28;20255;-34
2024/01/08 04:42:29;;;;;;;3.63;2.78;;;;;;;15.32;45.40;103337.06;4946549;28;20058;-32
2024/01/08 04:44:56;;;;;;;4.13;2.90;;;;;;;15.43;45.09;103337.38;4943749;29;20123;-34
2024/01/08 04:47:22;;;;;;;3.92;2.70;;;;;;;15.53;45.90;103336.00;4947328;29;20078;-34
2024/01/08 04:49:49;;;;;;;4.35;3.08;;;;;;;15.67;45.64;103329.97;4948875;28;20075;-32
2024/01/08 04:52:16;;;;;;;4.03;2.58;;;;;;;15.78;45.10;103333.00;4948138;29;20055;-33
2024/01/08 04:54:43;;;;;;;3.20;2.47;;;;;;;15.89;44.37;103332.44;4945453;28;20052;-34
2024/01/08 04:57:10;;;;;;;3.92;2.88;;;;;;;15.97;45.01;103337.41;4947021;28;20059;-33
2024/01/08 04:59:42;;;;;;;3.60;2.33;;;;;;;15.98;44.61;103337.31;4946344;29;20111;-33
2024/01/08 05:02:10;;;;;;;4.77;2.60;;;;;;;15.98;44.89;103339.13;4945841;29;20066;-35
2024/01/08 05:04:37;;;;;;;3.08;2.30;;;;;;;15.96;44.89;103330.31;4946182;29;20938;-33
2024/01/08 05:07:04;;;;;;;3.35;2.33;;;;;;;15.94;44.90;103326.88;4947293;28;20051;-33
2024/01/08 05:09:30;;;;;;;4.93;2.78;;;;;;;15.93;44.89;103334.03;4949149;28;20052;-33
2024/01/08 05:11:57;;;;;;;3.13;2.30;;;;;;;15.99;44.63;103325.66;4950010;28;20055;-34
2024/01/08 05:14:24;;;;;;;3.08;2.20;;;;;;;16.11;45.01;103331.31;4948121;28;20110;-34
2024/01/08 05:16:50;;;;;;;2.95;2.40;;;;;;;16.20;44.27;103331.72;4950151;29;20082;-33
2024/01/08 05:19:17;;;;;;;3.60;2.58;;;;;;;16.28;44.12;103333.97;4946310;28;20091;-32
2024/01/08 05:21:44;;;;;;;3.47;2.53;;;;;;;16.35;44.11;103334.53;4945203;29;20078;-33
2024/01/08 05:24:11;;;;;;;4.53;3.33;;;;;;;16.38;44.03;103327.19;4946532;29;20055;-33
2024/01/08 05:26:38;;;;;;;4.22;2.80;;;;;;;16.39;44.15;103333.41;4946322;29;20407;-33
2024/01/08 05:29:05;;;;;;;5.45;3.60;;;;;;;16.36;44.12;103333.56;4944580;29;20443;-33
2024/01/08 05:31:31;;;;;;;5.28;3.13;;;;;;;16.30;44.09;103324.06;4947640;29;20047;-32
2024/01/08 05:33:58;;;;;;;6.90;4.07;;;;;;;16.26;43.94;103334.06;4946746;29;20138;-35
2024/01/08 05:36:25;;;;;;;5.85;3.85;;;;;;;16.24;44.16;103324.38;4943957;28;20075;-33
2024/01/08 05:38:52;;;;;;;5.28;3.83;;;;;;;16.21;44.96;103322.75;4950015;28;20057;-33
2024/01/08 05:41:20;;;;;;;6.07;4.38;;;;;;;16.19;44.19;103327.31;4944518;29;20130;-32
2024/01/08 05:43:47;;;;;;;6.25;4.40;;;;;;;16.18;44.88;103324.72;4946809;28;20057;-32
2024/01/08 05:46:14;;;;;;;5.97;4.13;;;;;;;16.16;44.50;103322.13;4948405;29;20325;-34
2024/01/08 05:48:40;;;;;;;6.70;4.53;;;;;;;16.12;44.67;103325.91;4946629;28;20135;-32
2024/01/08 05:51:07;;;;;;;6.60;4.30;;;;;;;16.08;44.69;103319.00;4946514;29;20465;-33
2024/01/08 05:53:34;;;;;;;6.78;4.28;;;;;;;16.00;44.77;103321.19;4948847;29;20051;-32
2024/01/08 05:56:02;;;;;;;7.25;5.05;;;;;;;15.92;44.79;103324.28;4945441;28;20507;-33
2024/01/08 05:58:32;;;;;;;7.75;5.00;;;;;;;15.85;44.64;103322.84;4944078;29;20047;-33
2024/01/08 06:00:59;;;;;;;6.47;4.60;;;;;;;15.79;45.29;103318.66;4944144;29;20079;-33
2024/01/08 06:03:25;;;;;;;6.82;4.57;;;;;;;15.72;44.61;103322.63;4944083;29;20055;-33
2024/01/08 06:05:52;;;;;;;9.77;5.10;;;;;;;15.66;44.95;103325.59;4945546;29;20331;-33
2024/01/08 06:08:19;;;;;;;8.00;5.32;;;;;;;15.59;45.86;103329.47;4946619;29;20044;-33
2024/01/08 06:10:47;;;;;;;7.80;5.10;;;;;;;15.51;45.38;103327.19;4948059;29;20055;-34
2024/01/08 06:13:14;;;;;;;8.52;5.47;;;;;;;15.45;45.70;103326.63;4946779;29;20388;-33
2024/01/08 06:15:41;;;;;;;8.02;5.53;;;;;;;15.38;45.71;103334.09;4943282;28;20055;-34
2024/01/08 06:18:08;;;;;;;6.57;4.78;;;;;;;15.30;45.55;103337.13;4948021;28;20087;-32
2024/01/08 06:20:34;;;;;;;7.22;5.18;;;;;;;15.22;45.53;103322.41;4948189;28;20507;-33
2024/01/08 06:23:02;;;;;;;8.65;5.32;;;;;;;15.16;46.43;103328.94;4948142;28;20126;-33
2024/01/08 06:25:28;;;;;;;7.22;4.75;;;;;;;15.10;46.10;103334.56;4942070;29;20070;-33
2024/01/08 06:27:55;;;;;;;8.32;5.15;;;;;;;15.11;45.94;103333.59;4941573;28;20070;-33
2024/01/08 06:30:22;;;;;;;7.15;5.07;;;;;;;15.15;45.79;103334.34;4942595;29;20081;-33
2024/01/08 06:32:48;;;;;;;7.20;4.95;;;;;;;15.24;46.22;103332.09;4947904;28;20339;-33
2024/01/08 06:35:15;;;;;;;7.70;4.95;;;;;;;15.37;45.88;103334.16;4944925;29;20062;-33
2024/01/08 06:37:42;;;;;;;7.47;5.05;;;;;;;15.48;45.95;103324.69;4950845;28;20053;-32
2024/01/08 06:40:09;;;;;;;7.70;5.18;;;;;;;15.61;45.42;103321.41;4941589;28;20079;-33
2024/01/08 06:42:36;;;;;;;8.15;5.32;;;;;;;15.74;45.21;103319.84;4947589;29;20086;-33
2024/01/08 06:45:22;;;;;;;8.07;4.95;;;;;;;15.85;45.11;103322.84;4947485;29;20047;-34
2024/01/08 06:47:49;;;;;;;7.72;5.13;;;;;;;15.89;45.12;103315.53;4941647;29;20052;-33
2024/01/08 06:50:15;;;;;;;7.85;5.10;;;;;;;15.88;44.48;103317.34;4948567;29;20073;-34
2024/01/08 06:52:42;;;;;;;7.43;4.90;;;;;;;15.87;44.62;103320.09;4951155;28;20051;-33
2024/01/08 06:55:13;;;;;;;7.13;4.93;;;;;;;15.86;44.63;103315.69;4948713;28;20491;-33
2024/01/08 06:57:39;;;;;;;7.43;5.45;;;;;;;15.84;44.57;103315.78;4945443;29;20051;-33
2024/01/08 07:00:08;;;;;;;7.85;5.28;;;;;;;15.84;44.45;103323.81;4949066;29;20043;-33
2024/01/08 07:02:34;;;;;;;8.02;4.95;;;;;;;15.85;44.68;103322.84;4945975;29;20435;-34
2024/01/08 07:05:01;;;;;;;7.07;5.20;;;;;;;15.86;44.46;103329.06;4944059;29;20387;-34
2024/01/08 07:07:28;;;;;;;6.53;4.65;;;;;;;15.83;45.49;103323.88;4950608;28;20157;-33
2024/01/08 07:09:54;;;;;;;8.32;5.55;;;;;;;15.77;45.00;103325.91;4945155;29;20129;-34
2024/01/08 07:12:21;;;;;;;8.18;5.25;;;;;;;15.73;44.97;103332.38;4945863;29;20055;-33
2024/01/08 07:14:48;;;;;;;8.27;5.38;;;;;;;15.69;45.42;103346.84;4943263;28;20055;-33
2024/01/08 07:17:15;;;;;;;6.55;4.72;;;;;;;15.63;46.01;103335.53;4943190;28;20799;-32
2024/01/08 07:19:42;;;;;;;7.38;4.80;;;;;;;15.56;45.50;103335.00;4942961;28;20114;-32
2024/01/08 07:22:08;;;;;;;7.60;4.78;;;;;;;15.51;45.73;103337.00;4942803;29;20047;-33
2024/01/08 07:24:35;;;;;;;6.85;4.93;;;;;;;15.45;45.02;103340.88;4945585;28;20097;-30
2024/01/08 07:27:01;;;;;;;9.65;5.03;;;;;;;15.41;46.00;103341.09;4941835;28;20130;-34
2024/01/08 07:29:28;;;;;;;7.55;4.85;;;;;;;15.34;45.30;103345.88;4946785;28;20043;-33
2024/01/08 07:31:55;;;;;;;8.52;5.40;;;;;;;15.27;45.66;103345.28;4942525;28;20383;-33
2024/01/08 07:34:21;;;;;;;7.35;5.03;;;;;;;15.21;45.58;103344.75;4939230;29;20406;-34
2024/01/08 07:36:48;;;;;;;6.60;4.63;;;;;;;15.13;46.76;103350.44;4947193;28;20051;-33
2024/01/08 07:39:15;;;;;;;7.57;4.72;;;;;;;15.07;46.82;103345.38;4946179;29;20489;-34
2024/01/08 07:41:43;;;;;;;7.22;4.88;;;;;;;15.02;46.74;103342.94;4944201;28;20086;-33
2024/01/08 07:44:09;;;;;;;7.82;5.18;;;;;;;14.93;46.89;103347.84;4942094;28;20151;-33
2024/01/08 07:46:36;;;;;;;7.53;5.00;;;;;;;14.96;46.84;103351.25;4945737;28;20082;-33
2024/01/08 07:49:03;;;;;;;7.45;5.13;;;;;;;15.00;47.27;103347.50;4939290;28;20238;-33
2024/01/08 07:51:30;;;;;;;6.18;4.32;;;;;;;15.07;46.27;103356.06;4942933;29;20051;-33
2024/01/08 07:53:59;;;;;;;7.18;4.80;;;;;;;15.15;46.76;103356.56;4941806;29;20051;-33
2024/01/08 07:56:26;;;;;;;7.60;4.72;;;;;;;15.26;46.62;103353.38;4946247;28;20050;-33
2024/01/08 07:58:55;;;;;;;6.65;4.60;;;;;;;15.37;46.04;103358.22;4942505;28;20053;-33
2024/01/08 08:01:22;;;;;;;6.78;4.93;;;;;;;15.46;46.54;103358.63;4946100;29;20048;-34
2024/01/08 08:03:50;;;;;;;7.07;4.75;;;;;;;15.53;46.31;103357.38;4940506;28;20083;-33
2024/01/08 08:06:16;;;;;;;7.13;4.95;;;;;;;15.57;45.91;103370.59;4938161;29;20197;-33
2024/01/08 08:08:43;;;;;;;7.18;4.68;;;;;;;15.58;45.79;103375.88;4936068;29;20134;-33
2024/01/08 08:11:10;;;;;;;7.78;5.03;;;;;;;15.60;45.03;103359.75;4938940;29;20048;-33
2024/01/08 08:13:37;;;;;;;9.15;4.65;;;;;;;15.60;45.88;103371.31;4940809;28;20363;-33
2024/01/08 08:16:04;;;;;;;10.88;5.05;;;;;;;15.64;44.85;103367.56;4935130;29;20137;-33
2024/01/08 08:18:30;;;;;;;7.95;4.93;;;;;;;15.66;45.64;103368.38;4935043;29;20048;-33
2024/01/08 08:20:57;;;;;;;6.80;4.97;;;;;;;15.67;45.26;103370.09;4940906;29;20062;-33
2024/01/08 08:23:24;;;;;;;6.05;4.32;;;;;;;15.63;45.73;103375.63;4942703;28;20321;-34
2024/01/08 08:25:51;;;;;;;7.35;5.05;;;;;;;15.59;45.48;103371.38;4944928;28;20047;-34
2024/01/08 08:28:18;;;;;;;8.45;5.32;;;;;;;15.53;45.76;103370.75;4944614;28;20050;-32
2024/01/08 08:30:46;;;;;;;6.75;4.95;;;;;;;15.48;46.01;103377.28;4945695;29;20051;-33
2024/01/08 08:33:12;;;;;;;7.45;5.25;;;;;;;15.42;45.16;103380.22;4943381;28;20145;-33
2024/01/08 08:35:39;;;;;;;5.95;4.38;;;;;;;15.36;46.22;103378.75;4941911;29;20503;-33
2024/01/08 08:38:06;;;;;;;6.78;4.28;;;;;;;15.29;45.27;103379.97;4943681;29;20059;-34
2024/01/08 08:40:33;;;;;;;7.10;4.90;;;;;;;15.23;46.42;103388.25;4947415;29;20043;-33
2024/01/08 08:42:59;;;;;;;6.45;4.45;;;;;;;15.17;46.36;103389.44;4950211;29;20051;-33
2024/01/08 08:45:28;;;;;;;7.47;4.72;;;;;;;15.13;46.32;103398.53;4950956;29;20086;-34
2024/01/08 08:47:54;;;;;;;6.68;4.28;;;;;;;15.04;46.32;103393.63;4945413;29;20340;-33
2024/01/08 08:50:21;;;;;;;7.65;4.80;;;;;;;14.98;46.09;103394.75;4948654;29;20141;-33
2024/01/08 08:52:48;;;;;;;7.18;4.55;;;;;;;14.94;46.68;103400.31;4945416;28;20087;-33
2024/01/08 08:55:15;;;;;;;8.30;4.53;;;;;;;14.89;46.09;103403.19;4945712;29;20134;-33
2024/01/08 08:57:41;;;;;;;5.82;4.80;;;;;;;14.83;46.83;103403.47;4949146;29;20118;-32
2024/01/08 09:00:09;;;;;;;8.57;4.68;;;;;;;14.76;47.15;103402.03;4947643;29;20054;-33
2024/01/08 09:02:36;;;;;;;6.88;4.45;;;;;;;14.72;47.39;103400.44;4948296;29;20052;-33
2024/01/08 09:05:05;;;;;;;7.72;4.82;;;;;;;14.64;47.34;103399.91;4946914;29;20066;-33
2024/01/08 09:07:32;;;;;;;7.32;4.10;;;;;;;14.61;46.61;103424.06;4947239;29;20063;-33
2024/01/08 09:10:00;;;;;;;7.03;4.50;;;;;;;14.55;46.90;103418.09;4947061;29;20145;-33
2024/01/08 09:12:26;;;;;;;6.75;4.22;;;;;;;14.48;47.06;103418.38;4947581;29;20058;-33
2024/01/08 09:14:53;;;;;;;6.50;4.20;;;;;;;14.45;47.13;103419.38;4949424;28;20055;-34
2024/01/08 09:17:20;;;;;;;9.32;4.55;;;;;;;14.40;47.99;103418.72;4948338;28;20055;-33
2024/01/08 09:19:49;;;;;;;6.82;4.47;;;;;;;14.37;48.15;103420.66;4943896;29;20063;-32
2024/01/08 09:22:19;;;;;;;8.75;4.63;;;;;;;14.33;48.31;103425.25;4945377;28;20054;-33
2024/01/08 09:24:46;;;;;;;5.38;3.83;;;;;;;14.29;47.93;103431.66;4948737;29;20099;-33
2024/01/08 09:27:12;;;;;;;4.97;3.83;;;;;;;14.26;47.45;103427.28;4947138;29;20114;-33
2024/01/08 09:29:39;;;;;;;5.70;3.88;;;;;;;14.24;47.76;103421.19;4944375;29;20146;-33
2024/01/08 09:32:06;;;;;;;5.47;3.47;;;;;;;14.21;47.78;103429.31;4946662;28;20347;-32
2024/01/08 09:34:33;;;;;;;6.65;3.70;;;;;;;14.18;48.03;103423.22;4946577;29;20061;-34
2024/01/08 09:36:59;;;;;;;4.70;3.67;;;;;;;14.16;48.06;103435.78;4942269;29;20530;-33
2024/01/08 09:39:26;;;;;;;4.45;3.28;;;;;;;14.15;47.87;103445.56;4945281;29;20043;-33
2024/01/08 09:41:54;;;;;;;4.65;3.42;;;;;;;14.14;48.34;103435.81;4942603;29;20047;-34
2024/01/08 09:44:22;;;;;;;5.32;3.75;;;;;;;14.15;48.21;103437.59;4944830;28;20062;-32
2024/01/08 09:46:51;;;;;;;4.55;3.53;;;;;;;14.16;48.09;103438.44;4944725;29;20055;-33
2024/01/08 09:49:20;;;;;;;5.30;3.95;;;;;;;14.18;48.61;103448.09;4944494;28;20359;-33
2024/01/08 09:51:47;;;;;;;5.10;3.63;;;;;;;14.18;48.47;103448.09;4942575;29;20062;-33
2024/01/08 09:54:16;;;;;;;4.72;3.70;;;;;;;14.21;47.99;103453.31;4943657;29;20099;-33
2024/01/08 09:56:42;;;;;;;6.60;3.85;;;;;;;14.23;48.41;103450.56;4946979;29;20058;-32
2024/01/08 09:59:09;;;;;;;5.05;3.40;;;;;;;14.25;48.70;103462.91;4944986;29;20051;-33
2024/01/08 10:01:36;;;;;;;5.45;3.40;;;;;;;14.24;47.98;103458.53;4945819;28;20329;-34
2024/01/08 10:04:06;;;;;;;7.18;3.65;;;;;;;14.26;48.73;103458.44;4945105;29;20051;-34
2024/01/08 10:06:32;;;;;;;4.32;3.20;;;;;;;14.25;47.82;103454.91;4942869;28;20074;-33
2024/01/08 10:08:59;;;;;;;4.63;3.38;;;;;;;14.26;47.73;103463.78;4943708;29;20150;-32
2024/01/08 10:11:26;;;;;;;4.47;3.10;;;;;;;14.26;47.61;103453.97;4946159;29;20140;-32
2024/01/08 10:13:55;;;;;;;4.18;3.13;;;;;;;14.26;48.07;103455.78;4943771;28;20056;-32
2024/01/08 10:16:25;;;;;;;4.57;3.50;;;;;;;14.26;47.60;103455.78;4945873;29;20051;-33
2024/01/08 10:19:13;;;;;;;4.75;3.25;;;;;;;14.26;47.84;103453.97;4940561;28;20056;-34
2024/01/08 10:21:40;;;;;;;4.43;3.20;;;;;;;14.25;47.95;103457.56;4944311;29;20442;-34
2024/01/08 10:24:08;;;;;;;4.50;2.83;;;;;;;14.24;47.33;103447.84;4942601;29;20130;-33
2024/01/08 10:26:38;;;;;;;4.18;2.97;;;;;;;14.24;47.81;103447.84;4942421;29;20335;-33
2024/01/08 10:29:11;;;;;;;5.07;3.30;;;;;;;14.24;48.05;103453.19;4944103;29;20078;-34
2024/01/08 10:31:38;;;;;;;3.78;2.85;;;;;;;14.24;47.90;103449.66;4944447;29;20047;-34
2024/01/08 10:34:05;;;;;;;4.60;2.70;;;;;;;14.24;47.44;103449.66;4942906;29;20340;-33
2024/01/08 10:36:34;;;;;;;4.05;2.92;;;;;;;14.23;47.78;103435.44;4941962;29;20062;-32
2024/01/08 10:39:02;;;;;;;4.45;3.03;;;;;;;14.22;47.19;103431.03;4943249;29;20047;-32
2024/01/08 10:41:29;;;;;;;5.30;3.20;;;;;;;14.21;47.27;103429.31;4943985;29;20056;-32
2024/01/08 10:43:58;;;;;;;3.42;2.50;;;;;;;14.19;47.33;103436.50;4940690;29;20066;-32
2024/01/08 10:46:29;;;;;;;4.35;3.13;;;;;;;14.17;47.64;103432.16;4941781;29;20095;-33
2024/01/08 10:48:55;;;;;;;3.30;2.72;;;;;;;14.17;47.17;103435.69;4938347;29;20118;-33
2024/01/08 10:51:23;;;;;;;4.88;2.83;;;;;;;14.14;47.19;103432.28;4942432;29;20061;-34
2024/01/08 10:53:50;;;;;;;3.65;2.83;;;;;;;14.13;47.15;103431.44;4943087;29;20086;-33
2024/01/08 10:56:20;;;;;;;4.43;2.85;;;;;;;14.13;47.42;103428.75;4941407;29;20055;-33
2024/01/08 10:58:53;;;;;;;3.72;2.78;;;;;;;14.12;47.10;103426.16;4944816;28;20135;-34
2024/01/08 11:01:20;;;;;;;3.30;2.42;;;;;;;14.12;47.52;103428.84;4944336;28;20055;-33
2024/01/08 11:03:47;;;;;;;3.40;2.72;;;;;;;14.12;47.11;103423.50;4939077;29;20139;-33
2024/01/08 11:06:15;;;;;;;4.15;2.63;;;;;;;14.12;47.48;103419.03;4943215;29;20401;-32
2024/01/08 11:08:42;;;;;;;3.75;2.67;;;;;;;14.13;47.39;103404.75;4945876;29;20055;-33
2024/01/08 11:11:11;;;;;;;4.95;2.83;;;;;;;14.14;47.81;103417.16;4941342;29;20047;-34
2024/01/08 11:13:40;;;;;;;2.92;2.40;;;;;;;14.20;47.63;103402.72;4940987;28;20358;-33
2024/01/08 11:16:08;;;;;;;2.78;2.25;;;;;;;14.32;47.65;103412.84;4943970;29;20051;-34
2024/01/08 11:18:37;;;;;;;4.18;2.58;;;;;;;14.49;47.61;103398.78;4943376;29;20054;-33
2024/01/08 11:21:06;;;;;;;3.15;2.42;;;;;;;14.69;47.42;103404.09;4944430;28;20056;-33
2024/01/08 11:23:41;;;;;;;3.90;2.15;;;;;;;14.88;46.13;103401.47;4944228;29;20048;-33